Terminal Aerodrome Forecast
Issued by NWS

Home | Current Version | Previous Version | Text Only | Print | Product List | Glossary On
Versions: 1 2 3 4 5 6 7 8 9 10 11 12 13 14 15
000
FTUS41 KBTV 301725
TAFRUT
TAF
KRUT 301725Z 3018/3118 34005KT P6SM BKN120
     FM310000 11004KT P6SM SCT110
     FM310400 07004KT P6SM BKN070
     FM311400 11004KT P6SM VCSH BKN045
      AMD LTD TO CLD VIS AND WIND=

USA.gov is the U.S. government's official web portal to all federal, state and local government web resources and services.